Time;durP1;ratioP1;P1;durP2;ratioP2;P2;SDS_P1;SDS_P2;PMS_P1;PMS_P2;Temp;Humidity;BMP_temperature;BMP_pressure;BME280_temperature;BME280_humidity;BME280_pressure;Samples;Min_cycle;Max_cycle;Signal;HPM_P1;HPM_P2
2021/01/11 00:01:47;;;;;;;22.08;13.40;;;-1.30;99.90;;;;;;5037455;28;20211;-75
2021/01/11 00:04:13;;;;;;;24.10;14.65;;;-1.40;99.90;;;;;;5046041;28;20475;-72
2021/01/11 00:06:43;;;;;;;23.65;14.98;;;-1.30;99.90;;;;;;5048441;28;20037;-72
2021/01/11 00:09:10;;;;;;;28.73;14.75;;;-1.30;99.90;;;;;;5040968;28;20034;-72
2021/01/11 00:11:38;;;;;;;23.15;14.60;;;-1.30;99.90;;;;;;5028470;28;20430;-72
2021/01/11 00:14:04;;;;;;;20.75;12.77;;;-1.30;99.90;;;;;;5026699;28;20040;-72
2021/01/11 00:16:31;;;;;;;22.33;13.57;;;-1.40;99.90;;;;;;5030795;28;20065;-73
2021/01/11 00:18:56;;;;;;;21.45;13.02;;;-1.40;99.90;;;;;;5046344;28;20032;-76
2021/01/11 00:21:22;;;;;;;23.10;14.32;;;-1.40;99.90;;;;;;5028416;28;20041;-72
2021/01/11 00:23:48;;;;;;;25.20;15.32;;;-1.40;99.90;;;;;;5027579;28;20037;-72
2021/01/11 00:26:13;;;;;;;25.15;15.68;;;-1.40;99.90;;;;;;5028109;28;20467;-72
2021/01/11 00:28:40;;;;;;;22.40;14.30;;;-1.30;99.90;;;;;;5026910;28;20041;-72
2021/01/11 00:31:06;;;;;;;22.58;13.25;;;-1.30;99.90;;;;;;5026275;28;20075;-75
2021/01/11 00:33:32;;;;;;;23.10;14.35;;;-1.30;99.90;;;;;;5027605;28;20053;-72
2021/01/11 00:35:57;;;;;;;24.05;14.10;;;-1.30;99.90;;;;;;5026325;28;20025;-73
2021/01/11 00:38:23;;;;;;;21.67;13.23;;;-1.40;99.90;;;;;;5027620;28;20026;-72
2021/01/11 00:40:49;;;;;;;20.85;13.52;;;-1.50;99.90;;;;;;5026352;28;20127;-73
2021/01/11 00:43:14;;;;;;;22.42;13.77;;;-1.40;99.90;;;;;;5027464;28;20026;-73
2021/01/11 00:45:40;;;;;;;20.63;13.13;;;-1.40;99.90;;;;;;5026972;28;20063;-76
2021/01/11 00:48:06;;;;;;;21.48;13.77;;;-1.40;99.90;;;;;;5026827;28;20064;-74
2021/01/11 00:50:31;;;;;;;21.63;13.85;;;-1.40;99.90;;;;;;5026638;28;20106;-72
2021/01/11 00:52:57;;;;;;;21.77;13.60;;;-1.40;99.90;;;;;;5042193;28;20582;-75
2021/01/11 00:55:23;;;;;;;20.40;13.15;;;-1.50;99.90;;;;;;5046641;28;20048;-72
2021/01/11 00:57:48;;;;;;;23.50;14.85;;;-1.50;99.90;;;;;;5045328;28;20513;-73
2021/01/11 01:00:15;;;;;;;25.38;15.07;;;-1.50;99.90;;;;;;5046960;28;20079;-72
2021/01/11 01:02:41;;;;;;;22.45;14.60;;;-1.50;99.90;;;;;;5035004;28;20021;-76
2021/01/11 01:05:10;;;;;;;25.00;13.95;;;-1.50;99.90;;;;;;5027379;28;20461;-72
2021/01/11 01:07:41;;;;;;;21.63;12.60;;;-1.50;99.90;;;;;;5026017;28;20025;-72
2021/01/11 01:10:09;;;;;;;21.85;13.05;;;-1.50;99.90;;;;;;5026535;28;20038;-75
2021/01/11 01:12:35;;;;;;;25.67;14.23;;;-1.50;99.90;;;;;;5025979;28;20065;-75
2021/01/11 01:15:00;;;;;;;22.45;13.60;;;-1.60;99.90;;;;;;5027329;28;20080;-76
2021/01/11 01:17:26;;;;;;;22.42;13.32;;;-1.60;99.90;;;;;;5025719;28;20029;-72
2021/01/11 01:19:52;;;;;;;20.13;12.30;;;-1.60;99.90;;;;;;5027418;28;20414;-75
2021/01/11 01:22:17;;;;;;;20.65;13.23;;;-1.80;99.90;;;;;;5025422;28;20033;-72
2021/01/11 01:24:43;;;;;;;21.90;13.25;;;-1.70;99.90;;;;;;5026952;28;20542;-72
2021/01/11 01:27:09;;;;;;;22.27;14.20;;;-1.70;99.90;;;;;;5026043;28;20116;-72
2021/01/11 01:29:34;;;;;;;24.48;14.45;;;-1.60;99.90;;;;;;5025451;28;20040;-72
2021/01/11 01:32:00;;;;;;;21.75;13.82;;;-1.60;99.90;;;;;;5025679;28;20479;-72
2021/01/11 01:34:26;;;;;;;23.90;14.30;;;-1.60;99.90;;;;;;5024997;28;20051;-76
2021/01/11 01:36:51;;;;;;;21.77;13.98;;;-1.60;99.90;;;;;;5026281;28;20034;-72
2021/01/11 01:39:17;;;;;;;20.33;12.43;;;-1.70;99.90;;;;;;5037634;28;20025;-76
2021/01/11 01:41:45;;;;;;;21.80;13.82;;;-1.70;99.90;;;;;;5046564;28;20374;-72
2021/01/11 01:44:10;;;;;;;22.65;13.00;;;-1.70;99.90;;;;;;5044807;28;20040;-72
2021/01/11 01:46:37;;;;;;;24.95;13.80;;;-1.70;99.90;;;;;;5046283;28;20037;-72
2021/01/11 01:49:04;;;;;;;20.95;12.55;;;-1.70;99.90;;;;;;5032138;28;20038;-72
2021/01/11 01:51:30;;;;;;;22.13;12.95;;;-1.70;99.90;;;;;;5026188;28;20065;-72
2021/01/11 01:53:56;;;;;;;22.20;12.57;;;-1.70;99.90;;;;;;5034747;28;20068;-72
2021/01/11 01:56:24;;;;;;;20.90;13.02;;;-1.70;99.90;;;;;;5046086;28;20028;-72
2021/01/11 01:58:50;;;;;;;22.30;13.48;;;-1.80;99.90;;;;;;5036797;28;20355;-72
2021/01/11 02:01:15;;;;;;;22.45;14.13;;;-1.80;99.90;;;;;;5026499;28;20083;-73
2021/01/11 02:03:41;;;;;;;20.83;13.65;;;-1.70;99.90;;;;;;5024972;28;20036;-73
2021/01/11 02:06:07;;;;;;;24.23;12.48;;;-1.80;99.90;;;;;;5026324;28;20048;-72
2021/01/11 02:08:59;;;;;;;23.02;12.93;;;-1.90;99.90;;;;;;5024790;28;20071;-72
2021/01/11 02:11:37;;;;;;;23.42;13.90;;;-1.90;99.90;;;;;;5026334;28;20095;-72
2021/01/11 02:14:11;;;;;;;21.67;13.80;;;-1.90;99.90;;;;;;5024572;28;20482;-72
2021/01/11 02:16:39;;;;;;;23.25;15.18;;;-1.80;99.90;;;;;;5026139;28;20033;-75
2021/01/11 02:19:17;;;;;;;23.52;14.65;;;-1.70;99.90;;;;;;5024817;28;20414;-72
2021/01/11 02:21:51;;;;;;;23.17;14.05;;;-1.60;99.90;;;;;;5026519;28;20440;-72
2021/01/11 02:24:26;;;;;;;23.25;13.73;;;-1.70;99.90;;;;;;5027375;28;20559;-75
2021/01/11 02:27:07;;;;;;;25.80;15.23;;;-1.90;99.90;;;;;;5045344;28;20058;-72
2021/01/11 02:30:07;;;;;;;24.20;14.30;;;-1.80;99.90;;;;;;5039704;28;20032;-72
2021/01/11 02:32:37;;;;;;;22.50;14.63;;;-1.70;99.90;;;;;;5025690;28;20037;-73
2021/01/11 02:35:08;;;;;;;24.00;14.18;;;-1.70;99.90;;;;;;5024012;28;20049;-72
2021/01/11 02:37:37;;;;;;;23.85;13.90;;;-1.80;99.90;;;;;;5025502;28;20021;-76
2021/01/11 02:40:05;;;;;;;21.05;12.77;;;-1.80;99.90;;;;;;5023646;28;20561;-72
2021/01/11 02:42:30;;;;;;;22.83;13.85;;;-1.80;99.90;;;;;;5024869;28;20026;-73
2021/01/11 02:44:56;;;;;;;22.52;13.88;;;-1.90;99.90;;;;;;5024348;28;20045;-72
2021/01/11 02:47:29;;;;;;;22.08;13.82;;;-1.90;99.90;;;;;;5023845;28;20033;-72
2021/01/11 02:49:58;;;;;;;24.88;13.80;;;-1.90;99.90;;;;;;5026623;28;20044;-72
2021/01/11 02:52:38;;;;;;;22.65;13.90;;;-1.90;99.90;;;;;;5027843;28;20041;-72
2021/01/11 02:55:07;;;;;;;22.50;13.80;;;-1.90;99.90;;;;;;5029375;28;20045;-72
2021/01/11 02:57:55;;;;;;;22.80;14.10;;;-1.80;99.90;;;;;;5028960;28;20037;-72
2021/01/11 03:00:22;;;;;;;24.08;13.60;;;-1.80;99.90;;;;;;5049284;28;20037;-72
2021/01/11 03:02:49;;;;;;;26.30;13.88;;;-1.80;99.90;;;;;;5046617;28;20127;-72
2021/01/11 03:05:16;;;;;;;22.30;13.70;;;-1.90;99.90;;;;;;5029559;28;20041;-72
2021/01/11 03:07:58;;;;;;;27.98;14.63;;;-1.90;99.90;;;;;;5029094;28;20475;-76
2021/01/11 03:10:23;;;;;;;27.65;13.95;;;-1.90;99.90;;;;;;5029202;28;20480;-73
2021/01/11 03:12:49;;;;;;;23.10;13.88;;;-1.90;99.90;;;;;;5028572;28;20037;-73
2021/01/11 03:15:18;;;;;;;23.98;15.18;;;-2.00;99.90;;;;;;5027480;28;20059;-72
2021/01/11 03:17:44;;;;;;;25.42;14.88;;;-2.10;99.90;;;;;;5037513;28;20029;-72
2021/01/11 03:20:11;;;;;;;25.52;14.20;;;-2.10;99.90;;;;;;5045041;28;20090;-72
2021/01/11 03:22:37;;;;;;;22.33;13.35;;;-2.10;99.90;;;;;;5033978;28;20341;-72
2021/01/11 03:25:05;;;;;;;22.63;13.88;;;-2.10;99.90;;;;;;5043332;28;20473;-72
2021/01/11 03:27:30;;;;;;;22.58;13.25;;;-2.10;99.90;;;;;;5048508;28;20087;-72
2021/01/11 03:29:56;;;;;;;21.92;13.30;;;-2.20;99.90;;;;;;5047550;28;20611;-76
2021/01/11 03:32:22;;;;;;;22.27;13.43;;;-2.10;99.90;;;;;;5048722;28;20393;-72
2021/01/11 03:34:48;;;;;;;25.48;14.55;;;-2.10;99.90;;;;;;5047527;28;20106;-72
2021/01/11 03:37:13;;;;;;;24.40;13.32;;;-2.10;99.90;;;;;;5048527;28;20021;-72
2021/01/11 03:39:39;;;;;;;26.63;15.43;;;-2.10;99.90;;;;;;5047904;28;20229;-75
2021/01/11 03:42:05;;;;;;;24.45;13.88;;;-2.10;99.90;;;;;;5027925;28;20044;-73
2021/01/11 03:44:30;;;;;;;24.38;14.13;;;-2.10;99.90;;;;;;5028051;28;20036;-72
2021/01/11 03:46:56;;;;;;;23.25;13.52;;;-2.10;99.90;;;;;;5027652;28;20135;-76
2021/01/11 03:49:22;;;;;;;21.83;14.10;;;-2.20;99.90;;;;;;5046694;28;20033;-72
2021/01/11 03:51:48;;;;;;;24.15;14.38;;;-2.20;99.90;;;;;;5048667;28;20033;-72
2021/01/11 03:54:14;;;;;;;24.92;14.70;;;-2.10;99.90;;;;;;5047314;28;20066;-72
2021/01/11 03:56:39;;;;;;;25.08;14.10;;;-2.10;99.90;;;;;;5048551;28;20044;-72
2021/01/11 03:59:05;;;;;;;22.55;13.70;;;-2.10;99.90;;;;;;5032708;28;20422;-72
2021/01/11 04:01:35;;;;;;;22.35;13.20;;;-2.10;99.90;;;;;;5027677;28;20025;-72
2021/01/11 04:04:00;;;;;;;24.25;13.68;;;-2.20;99.90;;;;;;5039425;28;20045;-76
2021/01/11 04:06:26;;;;;;;22.48;14.55;;;-2.20;99.90;;;;;;5048479;28;20147;-72
2021/01/11 04:08:52;;;;;;;22.48;13.80;;;-2.20;99.90;;;;;;5036318;28;20502;-75
2021/01/11 04:11:19;;;;;;;23.33;14.23;;;-2.20;99.90;;;;;;5028073;28;20069;-72
2021/01/11 04:13:44;;;;;;;25.67;15.23;;;-2.20;99.90;;;;;;5025978;28;20041;-76
2021/01/11 04:16:10;;;;;;;23.00;14.30;;;-2.20;99.90;;;;;;5028251;28;20500;-72
2021/01/11 04:18:36;;;;;;;22.48;13.57;;;-2.20;99.90;;;;;;5026817;28;20037;-73
2021/01/11 04:21:01;;;;;;;23.52;13.15;;;-2.20;99.90;;;;;;5027234;28;20036;-76
2021/01/11 04:23:27;;;;;;;25.45;15.45;;;-2.10;99.90;;;;;;5027391;28;20464;-72
2021/01/11 04:25:52;;;;;;;23.10;13.90;;;-2.10;99.90;;;;;;5026725;28;20044;-72
2021/01/11 04:28:18;;;;;;;44.67;24.38;;;-2.10;99.90;;;;;;5027435;28;20031;-72
2021/01/11 04:30:44;;;;;;;51.85;25.25;;;-2.00;99.90;;;;;;5026493;28;20041;-76
2021/01/11 04:33:09;;;;;;;32.95;17.00;;;-2.00;99.90;;;;;;5027411;28;20053;-72
2021/01/11 04:35:35;;;;;;;28.88;15.00;;;-2.00;99.90;;;;;;5026263;28;20029;-72
2021/01/11 04:38:01;;;;;;;26.15;16.75;;;-2.10;99.90;;;;;;5027764;28;20026;-72
2021/01/11 04:40:26;;;;;;;28.23;16.60;;;-2.10;99.90;;;;;;5032431;28;20025;-72
2021/01/11 04:43:04;;;;;;;29.85;17.80;;;-2.00;99.90;;;;;;5047886;28;20029;-72
2021/01/11 04:45:30;;;;;;;28.15;16.23;;;-2.00;99.90;;;;;;5040885;28;20072;-72
2021/01/11 04:47:59;;;;;;;20.75;12.02;;;-2.00;99.90;;;;;;5025705;28;20042;-73
2021/01/11 04:50:26;;;;;;;24.58;14.45;;;-2.00;99.90;;;;;;5038241;28;20345;-73
2021/01/11 04:52:52;;;;;;;23.48;13.98;;;-2.00;99.90;;;;;;5031237;28;20028;-72
2021/01/11 04:55:19;;;;;;;23.45;13.70;;;-2.00;99.90;;;;;;5024958;28;20069;-72
2021/01/11 04:57:52;;;;;;;22.50;12.77;;;-2.00;99.90;;;;;;5028481;28;20167;-72
2021/01/11 05:00:24;;;;;;;24.50;14.65;;;-2.00;99.90;;;;;;5023676;28;20105;-73
2021/01/11 05:02:57;;;;;;;19.58;12.50;;;-2.10;99.90;;;;;;5025018;28;20075;-72
2021/01/11 05:05:23;;;;;;;20.77;12.63;;;-2.10;99.90;;;;;;5026702;28;20581;-72
2021/01/11 05:07:49;;;;;;;23.52;13.00;;;-2.10;99.90;;;;;;5030678;28;20108;-72
2021/01/11 05:10:21;;;;;;;22.85;12.23;;;-2.10;99.90;;;;;;5025676;28;20132;-72
2021/01/11 05:12:53;;;;;;;38.78;13.07;;;-2.10;99.90;;;;;;5025243;28;20052;-72
2021/01/11 05:15:21;;;;;;;;;;;-2.10;99.90;;;;;;5026136;28;20112;-72
2021/01/11 05:17:47;;;;;;;22.08;13.02;;;-2.20;99.90;;;;;;5025642;28;20286;-76
2021/01/11 05:20:14;;;;;;;26.52;13.07;;;-2.20;99.90;;;;;;5027102;28;20041;-76
2021/01/11 05:22:47;;;;;;;21.50;13.57;;;-2.10;99.90;;;;;;5024090;28;20026;-76
2021/01/11 05:25:13;;;;;;;;;;;-2.10;99.90;;;;;;5026266;28;20099;-72
2021/01/11 05:27:39;;;;;;;21.55;12.68;;;-2.00;99.90;;;;;;5024650;28;19909;-75
2021/01/11 05:30:08;;;;;;;22.98;12.77;;;-2.00;99.90;;;;;;5025327;28;20064;-73
2021/01/11 05:32:34;;;;;;;23.67;13.15;;;-2.00;99.90;;;;;;5025787;28;20075;-72
2021/01/11 05:35:00;;;;;;;23.25;13.77;;;-2.10;99.90;;;;;;5026162;28;20054;-76
2021/01/11 05:37:40;;;;;;;21.73;12.05;;;-2.10;99.90;;;;;;5034256;28;20029;-72
2021/01/11 05:40:09;;;;;;;21.05;12.40;;;-2.10;99.90;;;;;;5046185;28;20646;-76
2021/01/11 05:42:35;;;;;;;21.55;11.68;;;-2.10;99.90;;;;;;5043911;28;20033;-72
2021/01/11 05:45:16;;;;;;;21.10;12.02;;;-2.20;99.90;;;;;;5044451;28;20044;-72
2021/01/11 05:48:03;;;;;;;22.13;12.10;;;-2.30;99.90;;;;;;5027968;28;20063;-76
2021/01/11 05:50:33;;;;;;;21.17;12.32;;;-2.30;99.90;;;;;;5024774;28;20695;-72
2021/01/11 05:52:59;;;;;;;21.48;12.45;;;-2.20;99.90;;;;;;5041288;28;20044;-75
2021/01/11 05:55:26;;;;;;;21.00;12.30;;;-2.20;99.90;;;;;;5044318;28;20486;-72
2021/01/11 05:58:04;;;;;;;21.48;11.63;;;-2.30;99.90;;;;;;5029022;28;20075;-76
2021/01/11 06:00:35;;;;;;;25.75;12.73;;;-2.40;99.90;;;;;;5024236;28;20040;-76
2021/01/11 06:03:02;;;;;;;28.58;12.48;;;-2.40;99.90;;;;;;5025528;28;20063;-72
2021/01/11 06:05:29;;;;;;;21.33;13.20;;;-2.40;99.90;;;;;;5024471;28;20140;-72
2021/01/11 06:07:57;;;;;;;30.55;13.90;;;-2.40;99.90;;;;;;5045384;28;20060;-73
2021/01/11 06:10:24;;;;;;;22.30;13.52;;;-2.40;99.90;;;;;;5035732;28;20072;-72
2021/01/11 06:12:51;;;;;;;24.92;12.70;;;-2.30;99.90;;;;;;5028420;28;20119;-72
2021/01/11 06:15:19;;;;;;;21.10;11.82;;;-2.40;99.90;;;;;;5032454;28;20060;-73
2021/01/11 06:17:47;;;;;;;22.27;11.65;;;-2.50;99.90;;;;;;5029277;28;20017;-72
2021/01/11 06:20:14;;;;;;;21.55;12.50;;;-2.50;99.90;;;;;;5036270;28;20033;-73
2021/01/11 06:22:46;;;;;;;24.92;10.85;;;-2.40;99.90;;;;;;5039027;28;20033;-76
2021/01/11 06:25:21;;;;;;;25.02;11.75;;;-2.60;99.90;;;;;;5035548;28;20029;-73
2021/01/11 06:28:06;;;;;;;24.10;12.68;;;-2.60;99.90;;;;;;5036858;28;20102;-76
2021/01/11 06:30:41;;;;;;;23.88;11.85;;;-2.60;99.90;;;;;;5030913;28;20430;-72
2021/01/11 06:33:09;;;;;;;28.15;12.35;;;-2.70;99.90;;;;;;5029634;28;20087;-73
2021/01/11 06:35:42;;;;;;;22.58;13.35;;;-2.70;99.90;;;;;;5028477;28;20049;-76
2021/01/11 06:38:21;;;;;;;22.38;11.63;;;-2.70;99.90;;;;;;5029951;28;20115;-72
2021/01/11 06:40:50;;;;;;;22.42;11.70;;;-2.70;99.90;;;;;;5028716;28;20037;-72
2021/01/11 06:43:16;;;;;;;22.33;10.80;;;-2.60;99.90;;;;;;5032882;28;20202;-72
2021/01/11 06:45:43;;;;;;;25.67;13.80;;;-2.70;99.90;;;;;;5030369;28;20037;-72
2021/01/11 06:48:13;;;;;;;25.88;14.23;;;-2.70;99.90;;;;;;5032340;28;20064;-72
2021/01/11 06:50:38;;;;;;;24.50;13.50;;;-2.70;99.90;;;;;;5032226;28;20033;-73
2021/01/11 06:53:05;;;;;;;24.05;13.25;;;-2.70;99.90;;;;;;5026691;28;20545;-73
2021/01/11 06:55:31;;;;;;;28.77;13.13;;;-2.60;99.90;;;;;;5034583;28;20043;-72
2021/01/11 06:57:59;;;;;;;26.08;14.70;;;-2.70;99.90;;;;;;5032215;28;20034;-72
2021/01/11 07:00:44;;;;;;;23.58;13.20;;;-2.60;99.90;;;;;;5029470;28;20360;-73
2021/01/11 07:03:09;;;;;;;23.88;13.07;;;-2.70;99.90;;;;;;5031658;28;20067;-73
2021/01/11 07:05:35;;;;;;;27.42;13.30;;;-2.70;99.90;;;;;;5036599;28;20037;-73
2021/01/11 07:08:09;;;;;;;20.40;11.30;;;-2.70;99.90;;;;;;5032000;28;20427;-73
2021/01/11 07:10:35;;;;;;;23.75;11.88;;;-2.80;99.90;;;;;;5044680;28;20515;-76
2021/01/11 07:13:19;;;;;;;25.25;12.40;;;-2.90;99.90;;;;;;5046919;28;20059;-73
2021/01/11 07:15:52;;;;;;;25.40;11.77;;;-2.90;99.90;;;;;;5034677;28;20501;-73
2021/01/11 07:18:36;;;;;;;22.25;11.13;;;-2.90;99.90;;;;;;5041615;28;20036;-73
2021/01/11 07:21:10;;;;;;;23.05;9.73;;;-3.00;99.90;;;;;;5039237;28;20033;-76
2021/01/11 07:23:36;;;;;;;22.30;12.02;;;-3.10;99.90;;;;;;5040706;28;20478;-77
2021/01/11 07:26:02;;;;;;;31.58;13.65;;;-3.00;99.90;;;;;;5039088;28;20032;-76
2021/01/11 07:28:27;;;;;;;27.63;11.50;;;-2.90;99.90;;;;;;5036045;28;20032;-73
2021/01/11 07:30:54;;;;;;;25.23;12.70;;;-2.80;99.90;;;;;;5038739;28;20049;-73
2021/01/11 07:33:23;;;;;;;28.33;12.63;;;-2.80;99.90;;;;;;5049142;28;20474;-73
2021/01/11 07:35:48;;;;;;;41.00;14.05;;;-2.60;99.90;;;;;;5043630;28;20565;-76
2021/01/11 07:38:14;;;;;;;26.58;14.18;;;-2.60;99.90;;;;;;5045220;28;20025;-73
2021/01/11 07:40:40;;;;;;;25.80;13.60;;;-2.50;99.90;;;;;;5049327;28;20037;-73
2021/01/11 07:43:06;;;;;;;26.55;12.18;;;-2.60;99.90;;;;;;5045110;28;20078;-73
2021/01/11 07:45:32;;;;;;;26.10;13.13;;;-2.60;99.90;;;;;;5032902;28;20360;-76
2021/01/11 07:47:57;;;;;;;24.08;11.77;;;-2.70;99.90;;;;;;5035098;28;20052;-73
2021/01/11 07:50:29;;;;;;;22.90;11.65;;;-2.70;99.90;;;;;;5039180;28;20303;-73
2021/01/11 07:52:56;;;;;;;26.73;11.27;;;-2.70;99.90;;;;;;5040717;28;20033;-72
2021/01/11 07:55:29;;;;;;;22.83;11.88;;;-2.90;99.90;;;;;;5042064;28;20052;-74
2021/01/11 07:58:05;;;;;;;29.42;12.43;;;-2.80;99.90;;;;;;5042606;28;20029;-73
2021/01/11 08:00:31;;;;;;;23.52;12.32;;;-2.80;99.90;;;;;;5042931;28;20076;-73
2021/01/11 08:02:57;;;;;;;24.33;12.10;;;-2.70;99.90;;;;;;5035330;28;20478;-77
2021/01/11 08:05:25;;;;;;;25.13;12.88;;;-2.80;99.90;;;;;;5042752;28;20374;-73
2021/01/11 08:08:02;;;;;;;25.75;13.57;;;-2.80;99.90;;;;;;5044599;28;20048;-73
2021/01/11 08:10:28;;;;;;;26.15;13.57;;;-2.60;99.90;;;;;;5034611;28;20062;-73
2021/01/11 08:13:04;;;;;;;26.30;12.73;;;-2.60;99.90;;;;;;5046310;28;20040;-79
2021/01/11 08:15:30;;;;;;;21.67;12.23;;;-2.60;99.90;;;;;;5040438;28;20026;-72
2021/01/11 08:17:57;;;;;;;30.55;12.10;;;-2.70;99.90;;;;;;5043162;28;20025;-73
2021/01/11 08:20:23;;;;;;;24.58;11.65;;;-2.70;99.90;;;;;;5039542;28;20025;-73
2021/01/11 08:22:49;;;;;;;33.65;14.45;;;-2.70;99.90;;;;;;5037546;28;20025;-73
2021/01/11 08:25:15;;;;;;;28.40;13.45;;;-2.70;99.90;;;;;;5039251;28;20037;-72
2021/01/11 08:27:48;;;;;;;25.40;12.27;;;-2.70;99.90;;;;;;5044371;28;20758;-73
2021/01/11 08:30:16;;;;;;;26.10;13.38;;;-2.70;99.90;;;;;;5042556;28;20076;-72
2021/01/11 08:32:43;;;;;;;25.02;12.85;;;-2.70;99.90;;;;;;5051459;28;20147;-77
2021/01/11 08:35:13;;;;;;;26.30;13.40;;;-2.70;99.90;;;;;;5059108;28;20045;-72
2021/01/11 08:37:39;;;;;;;23.58;13.70;;;-2.70;99.90;;;;;;5045202;28;20048;-73
2021/01/11 08:40:17;;;;;;;23.15;13.43;;;-2.60;99.90;;;;;;5047769;28;20053;-73
2021/01/11 08:42:43;;;;;;;29.83;13.27;;;-2.60;99.90;;;;;;5030938;28;20138;-72
2021/01/11 08:45:27;;;;;;;24.90;12.32;;;-2.60;99.90;;;;;;5035614;28;20402;-72
2021/01/11 08:48:07;;;;;;;22.75;10.50;;;-2.70;99.90;;;;;;5035206;28;20039;-76
2021/01/11 08:50:38;;;;;;;25.15;12.48;;;-2.90;99.90;;;;;;5034966;28;20029;-77
2021/01/11 08:53:25;;;;;;;34.65;12.57;;;-2.80;99.90;;;;;;5041772;28;20420;-72
2021/01/11 08:56:09;;;;;;;25.63;12.73;;;-2.80;99.90;;;;;;5041941;28;20053;-73
2021/01/11 08:58:36;;;;;;;23.40;11.18;;;-2.70;99.90;;;;;;5043581;28;20032;-76
2021/01/11 09:01:13;;;;;;;25.65;12.23;;;-2.70;99.90;;;;;;5043572;28;20077;-77
2021/01/11 09:03:43;;;;;;;28.55;10.98;;;-2.80;99.90;;;;;;5034065;28;20048;-73
2021/01/11 09:06:09;;;;;;;23.85;10.82;;;-2.80;99.90;;;;;;5039713;28;20381;-73
2021/01/11 09:08:35;;;;;;;19.38;10.50;;;-2.80;99.90;;;;;;5037576;28;20025;-73
2021/01/11 09:11:08;;;;;;;21.58;12.50;;;-2.80;99.90;;;;;;5052690;28;20037;-73
2021/01/11 09:13:34;;;;;;;26.17;11.02;;;-2.70;99.90;;;;;;5045313;28;20132;-72
2021/01/11 09:16:14;;;;;;;21.65;12.77;;;-2.80;99.90;;;;;;5043301;28;20143;-77
2021/01/11 09:18:39;;;;;;;24.23;12.80;;;-2.80;99.90;;;;;;5050815;28;20484;-73
2021/01/11 09:21:07;;;;;;;27.13;12.63;;;-2.70;99.90;;;;;;5052402;28;20139;-76
2021/01/11 09:23:33;;;;;;;28.10;12.57;;;-2.60;99.90;;;;;;5039291;28;20654;-73
2021/01/11 09:26:00;;;;;;;23.25;12.65;;;-2.60;99.90;;;;;;5048222;28;20045;-73
2021/01/11 09:28:26;;;;;;;29.52;14.68;;;-2.50;99.90;;;;;;5051018;28;20020;-73
2021/01/11 09:30:53;;;;;;;24.10;12.13;;;-2.50;99.90;;;;;;5049964;28;20037;-72
2021/01/11 09:33:19;;;;;;;24.20;11.63;;;-2.50;99.90;;;;;;5046730;28;20474;-73
2021/01/11 09:35:45;;;;;;;30.35;12.75;;;-2.40;99.90;;;;;;5044445;28;20122;-72
2021/01/11 09:38:11;;;;;;;24.83;12.13;;;-2.40;99.90;;;;;;5055924;28;20909;-73
2021/01/11 09:40:36;;;;;;;25.30;12.52;;;-2.40;99.90;;;;;;5044117;28;20739;-76
2021/01/11 09:43:02;;;;;;;24.48;13.23;;;-2.30;99.90;;;;;;5053704;28;20025;-77
2021/01/11 09:45:28;;;;;;;32.75;12.73;;;-2.30;99.90;;;;;;5048680;28;20041;-73
2021/01/11 09:47:53;;;;;;;23.05;12.15;;;-2.20;99.90;;;;;;5043440;28;20036;-77
2021/01/11 09:50:19;;;;;;;22.77;12.32;;;-2.30;99.90;;;;;;5044759;28;20374;-72
2021/01/11 09:52:45;;;;;;;33.40;13.07;;;-2.30;99.90;;;;;;5034922;28;20036;-72
2021/01/11 09:55:12;;;;;;;25.63;11.95;;;-2.30;99.90;;;;;;5033783;28;20571;-73
2021/01/11 09:57:39;;;;;;;24.55;12.27;;;-2.30;99.90;;;;;;5035352;28;20036;-72
2021/01/11 10:00:08;;;;;;;22.40;11.88;;;-2.30;99.90;;;;;;5039564;28;20036;-72
2021/01/11 10:02:33;;;;;;;25.27;12.38;;;-2.20;99.90;;;;;;5032118;28;20413;-73
2021/01/11 10:04:59;;;;;;;24.77;12.98;;;-2.10;99.90;;;;;;5035963;28;20043;-72
2021/01/11 10:07:24;;;;;;;22.70;13.73;;;-2.10;99.90;;;;;;5037877;28;20029;-72
2021/01/11 10:09:50;;;;;;;28.15;14.55;;;-2.10;99.90;;;;;;5038893;28;20502;-72
2021/01/11 10:12:16;;;;;;;26.23;13.73;;;-2.00;99.90;;;;;;5030813;28;20504;-77
2021/01/11 10:14:41;;;;;;;24.15;13.63;;;-1.80;99.90;;;;;;5034822;28;20029;-76
2021/01/11 10:17:07;;;;;;;33.45;17.15;;;-1.80;99.90;;;;;;5044230;28;20036;-73
2021/01/11 10:19:32;;;;;;;30.23;17.00;;;-1.70;99.90;;;;;;5038959;28;20108;-72
2021/01/11 10:22:02;;;;;;;29.98;16.25;;;-1.60;99.90;;;;;;5040043;28;20031;-73
2021/01/11 10:24:27;;;;;;;30.67;16.85;;;-1.50;99.90;;;;;;5038987;28;20377;-72
2021/01/11 10:26:53;;;;;;;36.13;16.30;;;-1.40;99.90;;;;;;5035633;28;20086;-76
2021/01/11 10:29:22;;;;;;;30.17;15.82;;;-1.40;99.90;;;;;;5034511;28;20045;-72
2021/01/11 10:31:48;;;;;;;28.42;16.63;;;-1.30;99.90;;;;;;5034432;28;20059;-72
2021/01/11 10:34:17;;;;;;;26.50;15.55;;;-1.30;99.90;;;;;;5039059;28;20081;-72
2021/01/11 10:36:48;;;;;;;25.00;14.68;;;-1.20;99.90;;;;;;5041672;28;20493;-72
2021/01/11 10:39:14;;;;;;;26.70;17.10;;;-1.10;99.90;;;;;;5037237;28;20029;-73
2021/01/11 10:41:40;;;;;;;23.98;12.98;;;-1.10;99.90;;;;;;5038763;28;20108;-76
2021/01/11 10:44:07;;;;;;;23.98;13.20;;;-1.40;99.90;;;;;;5038519;28;20124;-72
2021/01/11 10:46:34;;;;;;;24.10;13.93;;;-1.40;99.90;;;;;;5035661;28;20041;-72
2021/01/11 10:49:00;;;;;;;28.67;15.10;;;-1.40;99.90;;;;;;5037434;28;20032;-73
2021/01/11 10:51:26;;;;;;;39.58;15.57;;;-1.20;99.90;;;;;;5035800;28;20036;-73
2021/01/11 10:53:52;;;;;;;28.70;14.65;;;-1.10;99.90;;;;;;5039966;28;20119;-73
2021/01/11 10:56:18;;;;;;;29.90;16.23;;;-1.10;99.90;;;;;;5041999;28;20025;-73
2021/01/11 10:58:44;;;;;;;63.38;17.30;;;-1.00;99.90;;;;;;5035343;28;20455;-72
2021/01/11 11:01:12;;;;;;;31.35;16.05;;;-0.70;99.90;;;;;;5039767;28;20067;-73
2021/01/11 11:03:38;;;;;;;31.35;16.45;;;-0.70;99.90;;;;;;5038897;28;20017;-73
2021/01/11 11:06:04;;;;;;;26.50;14.95;;;-0.70;99.90;;;;;;5043151;28;20040;-73
2021/01/11 11:08:30;;;;;;;29.55;15.50;;;-0.80;99.90;;;;;;5045566;28;20029;-76
2021/01/11 11:10:56;;;;;;;26.52;15.27;;;-0.90;99.90;;;;;;5045837;28;20060;-77
2021/01/11 11:13:22;;;;;;;25.35;16.05;;;-0.70;99.90;;;;;;5041146;28;20522;-72
2021/01/11 11:15:48;;;;;;;25.63;15.30;;;-0.80;99.90;;;;;;5050961;28;20069;-73
2021/01/11 11:18:16;;;;;;;28.33;15.90;;;-1.00;99.90;;;;;;5051205;28;20052;-77
2021/01/11 11:20:44;;;;;;;27.08;15.35;;;-1.10;99.90;;;;;;5041134;28;20103;-73
2021/01/11 11:23:10;;;;;;;25.33;16.10;;;-1.20;99.90;;;;;;5047611;28;20032;-73
2021/01/11 11:25:36;;;;;;;29.83;17.05;;;-1.10;99.90;;;;;;5048053;28;20798;-76
2021/01/11 11:28:03;;;;;;;28.05;16.13;;;-1.10;99.90;;;;;;5047604;28;20107;-73
2021/01/11 11:30:29;;;;;;;28.10;17.45;;;-1.10;99.90;;;;;;5042021;28;20029;-73
2021/01/11 11:32:54;;;;;;;29.63;17.35;;;-1.00;99.90;;;;;;5047423;28;20186;-72
2021/01/11 11:35:21;;;;;;;27.10;15.70;;;-0.80;99.90;;;;;;5047035;28;20156;-73
2021/01/11 11:37:47;;;;;;;27.70;17.35;;;-0.60;99.90;;;;;;5046499;28;20025;-72
2021/01/11 11:40:13;;;;;;;30.45;16.33;;;-0.40;99.90;;;;;;5052532;28;20706;-77
2021/01/11 11:42:41;;;;;;;29.73;17.45;;;-0.30;99.90;;;;;;5053779;28;20498;-72
2021/01/11 11:45:09;;;;;;;28.85;16.45;;;-0.20;99.90;;;;;;5049131;28;20169;-72
2021/01/11 11:47:36;;;;;;;29.48;16.70;;;-0.10;99.90;;;;;;5046826;28;20037;-73
2021/01/11 11:50:06;;;;;;;27.05;16.08;;;0.00;99.90;;;;;;5044982;28;20041;-73
2021/01/11 11:52:33;;;;;;;25.88;16.00;;;0.20;99.90;;;;;;5043906;28;20097;-73
2021/01/11 11:54:59;;;;;;;30.92;17.17;;;0.20;99.90;;;;;;5046478;28;20884;-73
2021/01/11 11:57:24;;;;;;;26.77;16.73;;;0.20;99.90;;;;;;5038981;28;20025;-73
2021/01/11 11:59:50;;;;;;;27.77;14.95;;;0.30;99.90;;;;;;5049586;28;20051;-73
2021/01/11 12:02:16;;;;;;;26.35;16.10;;;0.30;99.90;;;;;;5049328;28;20066;-73
2021/01/11 12:04:42;;;;;;;26.15;15.85;;;0.40;99.90;;;;;;5053335;28;20032;-73
2021/01/11 12:07:08;;;;;;;25.33;15.93;;;0.40;99.90;;;;;;5051390;28;20042;-73
2021/01/11 12:09:33;;;;;;;26.20;14.98;;;0.40;99.90;;;;;;5049977;28;20033;-73
2021/01/11 12:11:59;;;;;;;23.17;14.18;;;0.60;99.90;;;;;;5049625;28;20455;-73
2021/01/11 12:14:25;;;;;;;27.77;14.98;;;0.60;99.90;;;;;;5053042;28;20033;-79
2021/01/11 12:16:51;;;;;;;23.52;14.80;;;0.70;99.90;;;;;;5050399;28;20102;-75
2021/01/11 12:19:18;;;;;;;24.48;15.85;;;0.60;99.90;;;;;;5053378;28;20025;-77
2021/01/11 12:21:44;;;;;;;24.63;15.35;;;0.60;99.90;;;;;;5037790;28;20033;-74
2021/01/11 12:24:10;;;;;;;25.60;14.63;;;0.80;99.90;;;;;;5040746;28;20103;-74
2021/01/11 12:26:47;;;;;;;23.20;13.73;;;0.70;99.90;;;;;;5041443;28;20057;-75
2021/01/11 12:29:14;;;;;;;23.17;13.95;;;0.60;99.90;;;;;;5036555;28;20029;-75
2021/01/11 12:31:41;;;;;;;27.23;14.35;;;0.60;99.90;;;;;;5046801;28;20039;-74
2021/01/11 12:34:07;;;;;;;24.60;14.70;;;0.50;99.90;;;;;;5038989;28;20080;-75